South Amherst, Ohio
Current Conditions -  °F | °C
As of 7:53 AM on Friday 24 Oct 2014 (Local Time) from KLPR Reporting Station
Haze Haze  
Wind Chill: 36°   Ceiling: Unl
Heat Index: 36°   Visibility: 4mi
Dew Point: 35°   Wind: 3mph
Humidity: 97%   Direction: 180°S
Pressure: 30.1"   Gusts: NA
Location:  41.3705°N, 82.2583°W
Report Text: KLPR 241153Z AUTO 18003KT 4SM BR CLR 02/02 A3010 RMK AO2 SLP199 T00220017 10033 20017 50002 TSNO $
Loading
Personal Weather Stations






























Interactive Weather Map
Tropical Storm Tracking
New forecast layout! Learn more

10-Day Weather Forecast

Advertisements
Track Severe Weather on mobile